sensor_id;sensor_type;location;lat;lon;timestamp;pressure;altitude;pressure_sealevel;temperature;humidity
23616;BME280;11985;49.404;7.734;2023-02-26T00:00:08;96889.44;;;-2.38;73.29
23616;BME280;11985;49.404;7.734;2023-02-26T00:05:15;96888.22;;;-2.44;73.81
23616;BME280;11985;49.404;7.734;2023-02-26T00:10:17;96889.81;;;-2.53;74.33
23616;BME280;11985;49.404;7.734;2023-02-26T00:15:19;96889.38;;;-2.68;75.14
23616;BME280;11985;49.404;7.734;2023-02-26T00:20:23;96902.00;;;-2.64;75.39
23616;BME280;11985;49.404;7.734;2023-02-26T00:25:25;96900.09;;;-2.62;75.89
23616;BME280;11985;49.404;7.734;2023-02-26T00:30:28;96905.78;;;-2.69;76.18
23616;BME280;11985;49.404;7.734;2023-02-26T00:35:32;96911.41;;;-2.94;76.81
23616;BME280;11985;49.404;7.734;2023-02-26T00:40:40;96908.22;;;-3.07;77.85
23616;BME280;11985;49.404;7.734;2023-02-26T00:45:46;96902.41;;;-3.09;78.98
23616;BME280;11985;49.404;7.734;2023-02-26T00:50:55;96907.28;;;-3.06;79.00
23616;BME280;11985;49.404;7.734;2023-02-26T00:55:59;96907.19;;;-3.05;79.52
23616;BME280;11985;49.404;7.734;2023-02-26T01:01:00;96901.53;;;-3.20;80.34
23616;BME280;11985;49.404;7.734;2023-02-26T01:06:08;96911.94;;;-3.31;80.85
23616;BME280;11985;49.404;7.734;2023-02-26T01:11:10;96907.34;;;-3.27;81.88
23616;BME280;11985;49.404;7.734;2023-02-26T01:16:17;96914.56;;;-3.21;82.25
23616;BME280;11985;49.404;7.734;2023-02-26T01:21:27;96914.59;;;-3.11;82.37
23616;BME280;11985;49.404;7.734;2023-02-26T01:26:31;96909.69;;;-3.14;82.39
23616;BME280;11985;49.404;7.734;2023-02-26T01:31:38;96919.06;;;-3.13;82.64
23616;BME280;11985;49.404;7.734;2023-02-26T01:36:48;96915.53;;;-3.12;83.11
23616;BME280;11985;49.404;7.734;2023-02-26T01:41:53;96916.25;;;-3.01;83.54
23616;BME280;11985;49.404;7.734;2023-02-26T01:47:03;96916.97;;;-2.89;83.16
23616;BME280;11985;49.404;7.734;2023-02-26T01:57:43;96923.69;;;-2.77;83.18
23616;BME280;11985;49.404;7.734;2023-02-26T02:02:45;96923.69;;;-2.77;83.58
23616;BME280;11985;49.404;7.734;2023-02-26T02:07:46;96922.88;;;-2.68;84.12
23616;BME280;11985;49.404;7.734;2023-02-26T02:12:54;96919.44;;;-2.78;84.23
23616;BME280;11985;49.404;7.734;2023-02-26T02:18:04;96915.72;;;-2.95;85.31
23616;BME280;11985;49.404;7.734;2023-02-26T02:23:14;96922.19;;;-3.10;85.62
23616;BME280;11985;49.404;7.734;2023-02-26T02:28:30;96926.53;;;-3.10;86.31
23616;BME280;11985;49.404;7.734;2023-02-26T02:33:43;96915.72;;;-3.04;86.56
23616;BME280;11985;49.404;7.734;2023-02-26T02:38:50;96929.28;;;-3.02;85.81
23616;BME280;11985;49.404;7.734;2023-02-26T02:43:57;96930.59;;;-3.08;86.34
23616;BME280;11985;49.404;7.734;2023-02-26T02:49:03;96931.06;;;-3.24;87.02
23616;BME280;11985;49.404;7.734;2023-02-26T02:54:09;96935.09;;;-3.31;87.34
23616;BME280;11985;49.404;7.734;2023-02-26T02:59:15;96940.00;;;-3.28;88.29
23616;BME280;11985;49.404;7.734;2023-02-26T03:04:20;96941.88;;;-3.30;88.76
23616;BME280;11985;49.404;7.734;2023-02-26T03:09:21;96948.28;;;-3.45;88.79
23616;BME280;11985;49.404;7.734;2023-02-26T03:14:24;96949.81;;;-3.63;89.09
23616;BME280;11985;49.404;7.734;2023-02-26T03:19:30;96950.63;;;-3.63;90.35
23616;BME280;11985;49.404;7.734;2023-02-26T03:24:39;96951.19;;;-3.59;91.31
23616;BME280;11985;49.404;7.734;2023-02-26T03:29:50;96959.91;;;-3.51;91.43
23616;BME280;11985;49.404;7.734;2023-02-26T03:35:00;96962.03;;;-3.56;91.15
23616;BME280;11985;49.404;7.734;2023-02-26T03:40:09;96964.81;;;-3.68;91.19
23616;BME280;11985;49.404;7.734;2023-02-26T03:45:13;96962.09;;;-3.67;91.21
23616;BME280;11985;49.404;7.734;2023-02-26T03:50:21;96976.06;;;-3.69;92.05
23616;BME280;11985;49.404;7.734;2023-02-26T03:55:28;96976.41;;;-3.74;92.09
23616;BME280;11985;49.404;7.734;2023-02-26T04:00:32;96980.38;;;-3.70;92.64
23616;BME280;11985;49.404;7.734;2023-02-26T04:05:42;96990.41;;;-3.67;92.45
23616;BME280;11985;49.404;7.734;2023-02-26T04:10:51;96985.41;;;-3.68;92.16
23616;BME280;11985;49.404;7.734;2023-02-26T04:15:54;96993.38;;;-3.72;92.78
23616;BME280;11985;49.404;7.734;2023-02-26T04:20:57;96990.81;;;-3.72;92.97
23616;BME280;11985;49.404;7.734;2023-02-26T04:25:59;97000.66;;;-3.77;93.40
23616;BME280;11985;49.404;7.734;2023-02-26T04:31:00;97006.25;;;-3.72;94.16
23616;BME280;11985;49.404;7.734;2023-02-26T04:36:04;97014.84;;;-3.61;95.04
23616;BME280;11985;49.404;7.734;2023-02-26T04:41:06;97013.59;;;-3.46;95.82
23616;BME280;11985;49.404;7.734;2023-02-26T04:46:08;97011.56;;;-3.31;96.16
23616;BME280;11985;49.404;7.734;2023-02-26T04:51:11;97024.22;;;-3.19;96.54
23616;BME280;11985;49.404;7.734;2023-02-26T04:56:12;97019.91;;;-3.18;97.42
23616;BME280;11985;49.404;7.734;2023-02-26T05:01:14;97029.81;;;-3.13;97.95
23616;BME280;11985;49.404;7.734;2023-02-26T05:06:17;97033.44;;;-2.95;98.78
23616;BME280;11985;49.404;7.734;2023-02-26T05:11:18;97036.81;;;-2.74;98.96
23616;BME280;11985;49.404;7.734;2023-02-26T05:16:20;97041.28;;;-2.45;98.51
23616;BME280;11985;49.404;7.734;2023-02-26T05:21:23;97047.28;;;-2.35;98.29
23616;BME280;11985;49.404;7.734;2023-02-26T05:26:25;97047.63;;;-2.19;98.41
23616;BME280;11985;49.404;7.734;2023-02-26T05:31:32;97062.03;;;-2.06;98.66
23616;BME280;11985;49.404;7.734;2023-02-26T05:36:35;97067.72;;;-2.13;98.33
23616;BME280;11985;49.404;7.734;2023-02-26T05:41:36;97066.97;;;-2.03;98.51
23616;BME280;11985;49.404;7.734;2023-02-26T05:46:38;97072.53;;;-1.98;98.32
23616;BME280;11985;49.404;7.734;2023-02-26T05:51:41;97084.88;;;-2.02;98.66
23616;BME280;11985;49.404;7.734;2023-02-26T05:56:43;97091.28;;;-1.96;98.23
23616;BME280;11985;49.404;7.734;2023-02-26T06:01:45;97095.47;;;-2.05;98.26
23616;BME280;11985;49.404;7.734;2023-02-26T06:06:48;97094.91;;;-2.08;98.59
23616;BME280;11985;49.404;7.734;2023-02-26T06:11:50;97101.13;;;-2.11;98.26
23616;BME280;11985;49.404;7.734;2023-02-26T06:16:52;97105.72;;;-2.24;98.65
23616;BME280;11985;49.404;7.734;2023-02-26T06:21:55;97118.25;;;-2.20;99.05
23616;BME280;11985;49.404;7.734;2023-02-26T06:26:57;97115.00;;;-2.12;98.51
23616;BME280;11985;49.404;7.734;2023-02-26T06:31:58;97127.78;;;-2.10;98.03
23616;BME280;11985;49.404;7.734;2023-02-26T06:37:01;97143.38;;;-2.12;97.58
23616;BME280;11985;49.404;7.734;2023-02-26T06:42:03;97146.00;;;-2.02;96.94
23616;BME280;11985;49.404;7.734;2023-02-26T06:47:05;97156.38;;;-1.93;95.37
23616;BME280;11985;49.404;7.734;2023-02-26T06:52:08;97159.63;;;-1.91;94.96
23616;BME280;11985;49.404;7.734;2023-02-26T06:57:10;97166.00;;;-1.95;94.33
23616;BME280;11985;49.404;7.734;2023-02-26T07:02:15;97185.16;;;-1.97;93.78
23616;BME280;11985;49.404;7.734;2023-02-26T07:07:18;97181.47;;;-2.04;92.92
23616;BME280;11985;49.404;7.734;2023-02-26T07:12:20;97188.94;;;-2.01;92.91
23616;BME280;11985;49.404;7.734;2023-02-26T07:17:21;97196.16;;;-1.95;92.45
23616;BME280;11985;49.404;7.734;2023-02-26T07:22:25;97197.81;;;-1.94;91.56
23616;BME280;11985;49.404;7.734;2023-02-26T07:27:29;97211.56;;;-1.84;90.62
23616;BME280;11985;49.404;7.734;2023-02-26T07:32:32;97214.28;;;-1.86;89.34
23616;BME280;11985;49.404;7.734;2023-02-26T07:37:35;97219.13;;;-1.92;89.38
23616;BME280;11985;49.404;7.734;2023-02-26T07:42:37;97228.34;;;-1.99;88.21
23616;BME280;11985;49.404;7.734;2023-02-26T07:47:39;97232.13;;;-2.03;88.55
23616;BME280;11985;49.404;7.734;2023-02-26T07:52:42;97243.63;;;-2.07;87.67
23616;BME280;11985;49.404;7.734;2023-02-26T07:57:44;97240.81;;;-2.04;87.62
23616;BME280;11985;49.404;7.734;2023-02-26T08:02:45;97245.72;;;-2.01;88.03
23616;BME280;11985;49.404;7.734;2023-02-26T08:07:51;97247.78;;;-1.95;87.66
23616;BME280;11985;49.404;7.734;2023-02-26T08:12:53;97251.31;;;-1.96;87.09
23616;BME280;11985;49.404;7.734;2023-02-26T08:17:54;97260.16;;;-1.89;87.41
23616;BME280;11985;49.404;7.734;2023-02-26T08:22:58;97259.16;;;-1.77;86.78
23616;BME280;11985;49.404;7.734;2023-02-26T08:27:59;97265.44;;;-1.70;86.23
23616;BME280;11985;49.404;7.734;2023-02-26T08:33:02;97267.81;;;-1.78;85.27
23616;BME280;11985;49.404;7.734;2023-02-26T08:38:05;97276.75;;;-1.92;84.93
23616;BME280;11985;49.404;7.734;2023-02-26T08:43:07;97287.56;;;-1.98;85.16
23616;BME280;11985;49.404;7.734;2023-02-26T08:48:10;97283.47;;;-2.00;84.48
23616;BME280;11985;49.404;7.734;2023-02-26T08:53:14;97281.22;;;-2.15;84.88
23616;BME280;11985;49.404;7.734;2023-02-26T08:58:16;97290.81;;;-2.05;84.89
23616;BME280;11985;49.404;7.734;2023-02-26T09:03:17;97296.78;;;-2.05;84.22
23616;BME280;11985;49.404;7.734;2023-02-26T09:08:21;97294.31;;;-2.06;84.38
23616;BME280;11985;49.404;7.734;2023-02-26T09:13:23;97309.72;;;-1.95;85.04
23616;BME280;11985;49.404;7.734;2023-02-26T09:18:24;97313.03;;;-1.83;84.13
23616;BME280;11985;49.404;7.734;2023-02-26T09:23:27;97305.13;;;-1.71;83.87
23616;BME280;11985;49.404;7.734;2023-02-26T09:28:29;97323.31;;;-1.72;83.82
23616;BME280;11985;49.404;7.734;2023-02-26T09:33:31;97318.56;;;-1.67;83.75
23616;BME280;11985;49.404;7.734;2023-02-26T09:38:36;97325.63;;;-1.48;83.53
23616;BME280;11985;49.404;7.734;2023-02-26T09:44:00;97328.44;;;-1.51;82.21
23616;BME280;11985;49.404;7.734;2023-02-26T09:49:17;97333.19;;;-1.56;82.00
23616;BME280;11985;49.404;7.734;2023-02-26T09:54:23;97346.75;;;-1.64;81.84
23616;BME280;11985;49.404;7.734;2023-02-26T09:59:32;97350.63;;;-1.49;82.70
23616;BME280;11985;49.404;7.734;2023-02-26T10:04:48;97362.03;;;-1.51;81.53
23616;BME280;11985;49.404;7.734;2023-02-26T10:10:06;97364.16;;;-1.56;81.20
23616;BME280;11985;49.404;7.734;2023-02-26T10:15:12;97372.34;;;-1.51;81.61
23616;BME280;11985;49.404;7.734;2023-02-26T10:20:22;97371.31;;;-1.49;82.43
23616;BME280;11985;49.404;7.734;2023-02-26T10:25:32;97379.66;;;-1.56;83.10
23616;BME280;11985;49.404;7.734;2023-02-26T10:30:38;97379.78;;;-1.37;83.33
23616;BME280;11985;49.404;7.734;2023-02-26T10:35:47;97381.41;;;-1.36;82.11
23616;BME280;11985;49.404;7.734;2023-02-26T10:40:57;97374.69;;;-1.27;80.84
23616;BME280;11985;49.404;7.734;2023-02-26T10:46:20;97390.19;;;-1.18;79.58
23616;BME280;11985;49.404;7.734;2023-02-26T10:51:25;97375.28;;;-1.14;78.22
23616;BME280;11985;49.404;7.734;2023-02-26T10:56:33;97387.88;;;-0.90;79.25
23616;BME280;11985;49.404;7.734;2023-02-26T11:01:35;97393.88;;;-0.80;78.10
23616;BME280;11985;49.404;7.734;2023-02-26T11:06:40;97392.50;;;-0.84;76.49
23616;BME280;11985;49.404;7.734;2023-02-26T11:11:47;97393.59;;;-0.87;76.60
23616;BME280;11985;49.404;7.734;2023-02-26T11:16:52;97395.50;;;-0.89;76.01
23616;BME280;11985;49.404;7.734;2023-02-26T11:21:55;97402.31;;;-0.78;75.92
23616;BME280;11985;49.404;7.734;2023-02-26T11:26:59;97408.88;;;-0.74;74.66
23616;BME280;11985;49.404;7.734;2023-02-26T11:32:04;97399.38;;;-0.64;74.53
23616;BME280;11985;49.404;7.734;2023-02-26T11:37:05;97411.97;;;-0.49;74.51
23616;BME280;11985;49.404;7.734;2023-02-26T11:42:09;97410.16;;;-0.59;74.09
23616;BME280;11985;49.404;7.734;2023-02-26T11:47:14;97414.00;;;-0.34;74.30
23616;BME280;11985;49.404;7.734;2023-02-26T11:52:20;97416.66;;;-0.05;72.54
23616;BME280;11985;49.404;7.734;2023-02-26T11:57:25;97414.19;;;0.04;71.27
23616;BME280;11985;49.404;7.734;2023-02-26T12:02:31;97410.78;;;0.03;69.98
23616;BME280;11985;49.404;7.734;2023-02-26T12:07:35;97415.41;;;-0.01;69.06
23616;BME280;11985;49.404;7.734;2023-02-26T12:12:47;97422.91;;;-0.07;68.64
23616;BME280;11985;49.404;7.734;2023-02-26T12:18:06;97426.19;;;0.05;68.32
23616;BME280;11985;49.404;7.734;2023-02-26T12:23:24;97428.47;;;-0.12;68.42
23616;BME280;11985;49.404;7.734;2023-02-26T12:28:46;97418.25;;;-0.23;70.02
23616;BME280;11985;49.404;7.734;2023-02-26T12:33:59;97414.72;;;-0.22;71.97
23616;BME280;11985;49.404;7.734;2023-02-26T12:39:15;97423.19;;;-0.01;71.73
23616;BME280;11985;49.404;7.734;2023-02-26T12:44:42;97411.47;;;0.15;71.36
23616;BME280;11985;49.404;7.734;2023-02-26T12:50:02;97412.53;;;0.22;70.54
23616;BME280;11985;49.404;7.734;2023-02-26T12:55:14;97417.59;;;0.33;70.27
23616;BME280;11985;49.404;7.734;2023-02-26T13:00:51;97406.81;;;0.47;68.90
23616;BME280;11985;49.404;7.734;2023-02-26T13:11:39;97413.63;;;0.39;69.13
23616;BME280;11985;49.404;7.734;2023-02-26T13:16:50;97415.66;;;0.55;68.62
23616;BME280;11985;49.404;7.734;2023-02-26T13:21:57;97409.66;;;0.54;67.71
23616;BME280;11985;49.404;7.734;2023-02-26T13:27:02;97408.31;;;0.31;67.89
23616;BME280;11985;49.404;7.734;2023-02-26T13:32:10;97413.91;;;0.45;67.86
23616;BME280;11985;49.404;7.734;2023-02-26T13:37:23;97408.44;;;0.48;67.70
23616;BME280;11985;49.404;7.734;2023-02-26T13:42:32;97403.91;;;0.60;66.81
23616;BME280;11985;49.404;7.734;2023-02-26T13:47:56;97404.34;;;0.46;66.23
23616;BME280;11985;49.404;7.734;2023-02-26T13:53:04;97417.44;;;0.44;65.79
23616;BME280;11985;49.404;7.734;2023-02-26T13:58:35;97419.19;;;0.53;65.37
23616;BME280;11985;49.404;7.734;2023-02-26T14:03:46;97427.13;;;0.62;65.27
23616;BME280;11985;49.404;7.734;2023-02-26T14:08:50;97423.97;;;0.58;65.32
23616;BME280;11985;49.404;7.734;2023-02-26T14:14:10;97424.53;;;0.62;65.16
23616;BME280;11985;49.404;7.734;2023-02-26T14:19:26;97427.34;;;0.78;65.59
23616;BME280;11985;49.404;7.734;2023-02-26T14:24:34;97438.66;;;0.77;64.00
23616;BME280;11985;49.404;7.734;2023-02-26T14:29:39;97436.53;;;0.63;63.76
23616;BME280;11985;49.404;7.734;2023-02-26T14:34:51;97438.97;;;0.55;63.14
23616;BME280;11985;49.404;7.734;2023-02-26T14:39:57;97449.38;;;0.45;63.13
23616;BME280;11985;49.404;7.734;2023-02-26T14:45:07;97466.00;;;0.42;63.21
23616;BME280;11985;49.404;7.734;2023-02-26T14:50:17;97469.97;;;0.46;63.18
23616;BME280;11985;49.404;7.734;2023-02-26T14:55:29;97470.38;;;0.42;63.61
23616;BME280;11985;49.404;7.734;2023-02-26T15:00:40;97457.16;;;0.35;63.82
23616;BME280;11985;49.404;7.734;2023-02-26T15:05:53;97465.44;;;0.39;62.68
23616;BME280;11985;49.404;7.734;2023-02-26T15:16:41;97476.50;;;0.31;62.33
23616;BME280;11985;49.404;7.734;2023-02-26T15:21:56;97485.63;;;0.25;62.57
23616;BME280;11985;49.404;7.734;2023-02-26T15:27:01;97490.69;;;0.37;62.44
23616;BME280;11985;49.404;7.734;2023-02-26T15:32:12;97493.81;;;0.40;62.91
23616;BME280;11985;49.404;7.734;2023-02-26T15:37:20;97499.25;;;0.37;63.27
23616;BME280;11985;49.404;7.734;2023-02-26T15:42:29;97496.00;;;0.25;63.37
23616;BME280;11985;49.404;7.734;2023-02-26T15:47:33;97508.50;;;0.11;63.81
23616;BME280;11985;49.404;7.734;2023-02-26T15:52:36;97509.63;;;0.18;63.61
23616;BME280;11985;49.404;7.734;2023-02-26T15:57:37;97517.81;;;0.42;63.88
23616;BME280;11985;49.404;7.734;2023-02-26T16:02:40;97523.25;;;0.97;63.33
23616;BME280;11985;49.404;7.734;2023-02-26T16:07:42;97505.44;;;2.68;60.72
23616;BME280;11985;49.404;7.734;2023-02-26T16:12:45;97514.63;;;3.24;58.35
23616;BME280;11985;49.404;7.734;2023-02-26T16:17:48;97524.31;;;2.70;56.80
23616;BME280;11985;49.404;7.734;2023-02-26T16:22:56;97525.81;;;1.54;56.57
23616;BME280;11985;49.404;7.734;2023-02-26T16:28:00;97528.47;;;0.78;57.46
23616;BME280;11985;49.404;7.734;2023-02-26T16:33:05;97533.91;;;0.36;57.92
23616;BME280;11985;49.404;7.734;2023-02-26T16:38:16;97531.44;;;0.06;59.42
23616;BME280;11985;49.404;7.734;2023-02-26T16:43:46;97541.72;;;-0.14;59.79
23616;BME280;11985;49.404;7.734;2023-02-26T16:48:53;97552.06;;;-0.14;60.34
23616;BME280;11985;49.404;7.734;2023-02-26T16:53:58;97562.03;;;-0.09;61.35
23616;BME280;11985;49.404;7.734;2023-02-26T16:59:05;97566.03;;;0.05;61.37
23616;BME280;11985;49.404;7.734;2023-02-26T17:04:10;97573.94;;;0.03;62.40
23616;BME280;11985;49.404;7.734;2023-02-26T17:09:29;97571.72;;;-0.02;62.95
23616;BME280;11985;49.404;7.734;2023-02-26T17:14:37;97587.94;;;-0.09;64.36
23616;BME280;11985;49.404;7.734;2023-02-26T17:19:41;97592.41;;;-0.11;64.03
23616;BME280;11985;49.404;7.734;2023-02-26T17:24:44;97599.00;;;-0.28;64.01
23616;BME280;11985;49.404;7.734;2023-02-26T17:29:49;97601.06;;;-0.32;63.66
23616;BME280;11985;49.404;7.734;2023-02-26T17:34:52;97607.06;;;-0.31;64.25
23616;BME280;11985;49.404;7.734;2023-02-26T17:39:56;97610.53;;;-0.42;64.08
23616;BME280;11985;49.404;7.734;2023-02-26T17:44:59;97627.41;;;-0.47;63.78
23616;BME280;11985;49.404;7.734;2023-02-26T17:50:00;97625.47;;;-0.55;63.89
23616;BME280;11985;49.404;7.734;2023-02-26T17:55:04;97643.44;;;-0.54;63.72
23616;BME280;11985;49.404;7.734;2023-02-26T18:00:07;97634.34;;;-0.48;63.55
23616;BME280;11985;49.404;7.734;2023-02-26T18:05:09;97645.94;;;-0.42;62.64
23616;BME280;11985;49.404;7.734;2023-02-26T18:10:17;97642.78;;;-0.46;62.69
23616;BME280;11985;49.404;7.734;2023-02-26T18:15:19;97653.78;;;-0.54;61.94
23616;BME280;11985;49.404;7.734;2023-02-26T18:20:21;97652.66;;;-0.61;62.11
23616;BME280;11985;49.404;7.734;2023-02-26T18:25:25;97660.78;;;-0.65;62.02
23616;BME280;11985;49.404;7.734;2023-02-26T18:30:29;97654.53;;;-0.63;62.39
23616;BME280;11985;49.404;7.734;2023-02-26T18:35:31;97661.34;;;-0.62;62.43
23616;BME280;11985;49.404;7.734;2023-02-26T18:40:35;97653.84;;;-0.65;61.95
23616;BME280;11985;49.404;7.734;2023-02-26T18:45:37;97659.97;;;-0.66;62.07
23616;BME280;11985;49.404;7.734;2023-02-26T18:50:38;97665.38;;;-0.69;62.42
23616;BME280;11985;49.404;7.734;2023-02-26T18:55:41;97664.44;;;-0.68;62.57
23616;BME280;11985;49.404;7.734;2023-02-26T19:00:43;97666.78;;;-0.65;62.10
23616;BME280;11985;49.404;7.734;2023-02-26T19:05:45;97687.72;;;-0.68;61.53
23616;BME280;11985;49.404;7.734;2023-02-26T19:10:47;97688.94;;;-0.72;62.72
23616;BME280;11985;49.404;7.734;2023-02-26T19:15:49;97691.56;;;-0.83;62.42
23616;BME280;11985;49.404;7.734;2023-02-26T19:20:50;97693.94;;;-0.91;63.15
23616;BME280;11985;49.404;7.734;2023-02-26T19:25:53;97701.22;;;-0.96;63.54
23616;BME280;11985;49.404;7.734;2023-02-26T19:30:55;97699.38;;;-1.06;63.70
23616;BME280;11985;49.404;7.734;2023-02-26T19:35:56;97700.56;;;-1.10;63.79
23616;BME280;11985;49.404;7.734;2023-02-26T19:40:59;97700.94;;;-1.14;64.06
23616;BME280;11985;49.404;7.734;2023-02-26T19:46:01;97711.41;;;-1.16;64.29
23616;BME280;11985;49.404;7.734;2023-02-26T19:51:03;97708.09;;;-1.18;65.17
23616;BME280;11985;49.404;7.734;2023-02-26T19:56:07;97721.47;;;-1.13;64.89
23616;BME280;11985;49.404;7.734;2023-02-26T20:01:08;97718.66;;;-1.10;64.83
23616;BME280;11985;49.404;7.734;2023-02-26T20:06:10;97720.78;;;-1.15;65.26
23616;BME280;11985;49.404;7.734;2023-02-26T20:11:13;97725.03;;;-1.25;65.38
23616;BME280;11985;49.404;7.734;2023-02-26T20:16:14;97733.75;;;-1.37;66.18
23616;BME280;11985;49.404;7.734;2023-02-26T20:21:16;97737.31;;;-1.49;66.21
23616;BME280;11985;49.404;7.734;2023-02-26T20:26:19;97737.78;;;-1.55;67.02
23616;BME280;11985;49.404;7.734;2023-02-26T20:31:21;97732.34;;;-1.52;66.91
23616;BME280;11985;49.404;7.734;2023-02-26T20:36:22;97734.25;;;-1.54;67.13
23616;BME280;11985;49.404;7.734;2023-02-26T20:41:25;97738.59;;;-1.55;67.38
23616;BME280;11985;49.404;7.734;2023-02-26T20:46:27;97747.50;;;-1.59;67.58
23616;BME280;11985;49.404;7.734;2023-02-26T20:51:30;97752.56;;;-1.57;67.25
23616;BME280;11985;49.404;7.734;2023-02-26T20:56:33;97758.19;;;-1.52;67.19
23616;BME280;11985;49.404;7.734;2023-02-26T21:01:34;97754.19;;;-1.45;67.68
23616;BME280;11985;49.404;7.734;2023-02-26T21:06:36;97762.19;;;-1.48;67.64
23616;BME280;11985;49.404;7.734;2023-02-26T21:11:41;97753.03;;;-1.52;67.75
23616;BME280;11985;49.404;7.734;2023-02-26T21:16:43;97753.72;;;-1.62;67.83
23616;BME280;11985;49.404;7.734;2023-02-26T21:21:45;97757.97;;;-1.72;67.59
23616;BME280;11985;49.404;7.734;2023-02-26T21:26:48;97755.38;;;-1.83;68.46
23616;BME280;11985;49.404;7.734;2023-02-26T21:31:49;97759.13;;;-1.87;68.53
23616;BME280;11985;49.404;7.734;2023-02-26T21:36:52;97767.09;;;-1.90;68.72
23616;BME280;11985;49.404;7.734;2023-02-26T21:41:55;97773.44;;;-1.94;68.43
23616;BME280;11985;49.404;7.734;2023-02-26T21:46:58;97763.78;;;-2.03;68.76
23616;BME280;11985;49.404;7.734;2023-02-26T21:52:03;97772.25;;;-2.01;68.82
23616;BME280;11985;49.404;7.734;2023-02-26T21:57:06;97779.50;;;-1.95;69.15
23616;BME280;11985;49.404;7.734;2023-02-26T22:02:11;97766.84;;;-1.98;68.54
23616;BME280;11985;49.404;7.734;2023-02-26T22:07:13;97770.84;;;-2.05;69.15
23616;BME280;11985;49.404;7.734;2023-02-26T22:12:15;97774.56;;;-2.09;69.14
23616;BME280;11985;49.404;7.734;2023-02-26T22:17:17;97773.38;;;-2.17;69.04
23616;BME280;11985;49.404;7.734;2023-02-26T22:22:19;97778.16;;;-2.23;69.36
23616;BME280;11985;49.404;7.734;2023-02-26T22:27:22;97774.28;;;-2.29;69.81
23616;BME280;11985;49.404;7.734;2023-02-26T22:32:23;97771.66;;;-2.40;69.54
23616;BME280;11985;49.404;7.734;2023-02-26T22:37:25;97773.19;;;-2.49;70.03
23616;BME280;11985;49.404;7.734;2023-02-26T22:42:32;97777.72;;;-2.52;70.55
23616;BME280;11985;49.404;7.734;2023-02-26T22:47:34;97781.44;;;-2.56;70.75
23616;BME280;11985;49.404;7.734;2023-02-26T22:52:35;97777.22;;;-2.57;70.75
23616;BME280;11985;49.404;7.734;2023-02-26T22:57:38;97776.53;;;-2.59;70.88
23616;BME280;11985;49.404;7.734;2023-02-26T23:02:40;97776.41;;;-2.58;70.33
23616;BME280;11985;49.404;7.734;2023-02-26T23:07:42;97771.69;;;-2.64;70.83
23616;BME280;11985;49.404;7.734;2023-02-26T23:12:46;97765.22;;;-2.70;70.85
23616;BME280;11985;49.404;7.734;2023-02-26T23:17:48;97767.19;;;-2.73;71.35
23616;BME280;11985;49.404;7.734;2023-02-26T23:22:49;97766.50;;;-2.75;71.24
23616;BME280;11985;49.404;7.734;2023-02-26T23:27:52;97770.72;;;-2.74;71.93
23616;BME280;11985;49.404;7.734;2023-02-26T23:32:53;97772.69;;;-2.78;71.25
23616;BME280;11985;49.404;7.734;2023-02-26T23:37:55;97765.19;;;-2.81;72.08
23616;BME280;11985;49.404;7.734;2023-02-26T23:42:58;97774.06;;;-2.85;72.04
23616;BME280;11985;49.404;7.734;2023-02-26T23:48:00;97766.56;;;-2.88;71.96
23616;BME280;11985;49.404;7.734;2023-02-26T23:53:01;97767.38;;;-2.87;72.28
23616;BME280;11985;49.404;7.734;2023-02-26T23:58:04;97776.88;;;-2.88;72.23
